createdAt,value
2019-04-28T00:01:42.022Z,8.90
2019-04-28T00:07:50.560Z,16.80
2019-04-28T00:13:56.547Z,10.50
2019-04-28T00:20:04.256Z,16.57
2019-04-28T00:26:24.613Z,16.07
2019-04-28T00:32:32.498Z,19.83
2019-04-28T00:38:38.343Z,14.77
2019-04-28T00:44:44.303Z,11.97
2019-04-28T00:50:51.971Z,13.53
2019-04-28T00:56:58.406Z,13.20
2019-04-28T01:03:04.353Z,15.57
2019-04-28T01:09:11.844Z,16.13
2019-04-28T01:15:39.671Z,13.57
2019-04-28T01:22:03.447Z,22.03
2019-04-28T01:28:09.833Z,12.23
2019-04-28T01:34:24.307Z,13.67
2019-04-28T01:40:30.505Z,17.67
2019-04-28T01:46:36.712Z,18.63
2019-04-28T01:52:42.892Z,16.77
2019-04-28T01:58:49.928Z,15.77
2019-04-28T02:04:56.666Z,21.13
2019-04-28T02:11:03.251Z,16.93
2019-04-28T02:17:10.515Z,15.33
2019-04-28T02:23:22.138Z,13.77
2019-04-28T02:29:29.881Z,21.63
2019-04-28T02:35:35.608Z,19.67
2019-04-28T02:41:41.774Z,17.27
2019-04-28T02:47:48.069Z,17.17
2019-04-28T02:53:55.913Z,21.30
2019-04-28T03:00:01.898Z,20.00
2019-04-28T03:06:10.238Z,16.60
2019-04-28T03:12:15.662Z,12.10
2019-04-28T03:18:21.676Z,19.43
2019-04-28T03:24:27.739Z,13.30
2019-04-28T03:31:36.597Z,14.77
2019-04-28T03:37:15.337Z,11.27
2019-04-28T03:43:21.452Z,16.00
2019-04-28T03:49:34.998Z,16.03
2019-04-28T03:55:41.654Z,16.83
2019-04-28T04:01:56.698Z,12.83
2019-04-28T04:07:55.508Z,12.57
2019-04-28T04:14:12.662Z,12.03
2019-04-28T04:20:23.739Z,9.37
2019-04-28T04:26:31.077Z,7.47
2019-04-28T04:32:37.567Z,12.43
2019-04-28T04:38:46.221Z,13.47
2019-04-28T04:44:51.029Z,14.20
2019-04-28T04:50:57.736Z,13.90
2019-04-28T04:57:03.876Z,13.60
2019-04-28T05:03:14.863Z,13.50
2019-04-28T05:09:20.771Z,18.13
2019-04-28T05:15:26.739Z,15.10
2019-04-28T05:21:33.440Z,15.23
2019-04-28T05:27:39.969Z,11.67
2019-04-28T05:33:46.047Z,10.70
2019-04-28T05:39:52.645Z,15.27
2019-04-28T05:46:00.294Z,11.10
2019-04-28T05:52:56.723Z,12.27
2019-04-28T05:59:09.650Z,15.50
2019-04-28T06:05:15.534Z,11.70
2019-04-28T06:11:35.572Z,9.20
2019-04-28T06:17:41.528Z,10.43
2019-04-28T06:23:48.320Z,9.67
2019-04-28T06:29:54.218Z,12.30
2019-04-28T06:36:00.119Z,15.13
2019-04-28T06:42:06.233Z,8.87
2019-04-28T06:48:12.011Z,10.47
2019-04-28T06:54:17.895Z,12.20
2019-04-28T07:00:23.664Z,12.37
2019-04-28T07:06:30.177Z,7.40
2019-04-28T07:12:36.522Z,10.67
2019-04-28T07:18:42.366Z,10.47
2019-04-28T07:24:48.897Z,12.67
2019-04-28T07:30:54.768Z,8.50
2019-04-28T07:37:00.724Z,11.10
2019-04-28T07:43:06.979Z,11.93
2019-04-28T07:49:13.720Z,11.13
2019-04-28T07:55:19.764Z,12.93
2019-04-28T08:01:26.350Z,12.67
2019-04-28T08:07:32.208Z,9.87
2019-04-28T08:13:38.109Z,8.70
2019-04-28T08:19:43.895Z,6.03
2019-04-28T08:25:49.653Z,7.67
2019-04-28T08:32:02.372Z,8.07
2019-04-28T08:38:08.216Z,11.27
2019-04-28T08:44:14.162Z,8.20
2019-04-28T08:50:20.047Z,5.73
2019-04-28T08:56:25.831Z,12.37
2019-04-28T09:02:31.915Z,9.57
2019-04-28T09:08:39.303Z,3.33
2019-04-28T09:14:45.176Z,7.33
2019-04-28T09:20:51.369Z,7.03
2019-04-28T09:26:57.444Z,7.47
2019-04-28T09:33:03.418Z,7.43
2019-04-28T09:39:11.725Z,6.30
2019-04-28T09:45:20.920Z,8.97
2019-04-28T09:51:27.079Z,7.33
2019-04-28T09:57:32.913Z,3.57
2019-04-28T10:03:39.133Z,4.83
2019-04-28T10:09:45.033Z,3.47
2019-04-28T10:15:51.057Z,4.73
2019-04-28T10:21:56.845Z,5.83
2019-04-28T10:28:02.658Z,4.00
2019-04-28T10:34:08.511Z,5.73
2019-04-28T10:41:13.450Z,3.63
2019-04-28T10:47:20.934Z,4.03
2019-04-28T10:53:26.859Z,4.47
2019-04-28T10:59:32.604Z,5.17
2019-04-28T11:05:42.425Z,2.90
2019-04-28T11:11:48.478Z,3.10
2019-04-28T11:17:54.803Z,2.97
2019-04-28T11:24:00.555Z,3.07
2019-04-28T11:30:06.818Z,2.90
2019-04-28T11:36:41.774Z,3.20
2019-04-28T11:42:47.547Z,2.60
2019-04-28T11:48:53.404Z,3.10
2019-04-28T11:55:01.775Z,2.37
2019-04-28T12:01:13.088Z,2.77
2019-04-28T12:07:18.985Z,3.47
2019-04-28T12:13:44.456Z,2.77
2019-04-28T12:19:53.501Z,3.03
2019-04-28T12:25:59.344Z,3.47
2019-04-28T12:32:05.146Z,2.23
2019-04-28T12:38:11.041Z,2.80
2019-04-28T12:44:17.079Z,2.53
2019-04-28T12:50:30.696Z,3.10
2019-04-28T12:56:36.867Z,3.47
2019-04-28T13:03:01.429Z,1.70
2019-04-28T13:09:08.999Z,4.37
2019-04-28T13:15:15.113Z,1.10
2019-04-28T13:21:20.892Z,1.47
2019-04-28T13:27:26.997Z,1.80
2019-04-28T13:33:32.901Z,2.57
2019-04-28T13:39:57.769Z,2.00
2019-04-28T13:46:03.917Z,2.50
2019-04-28T13:52:09.713Z,2.23
2019-04-28T13:58:17.538Z,4.27
2019-04-28T14:04:41.063Z,2.50
2019-04-28T14:10:47.537Z,2.10
2019-04-28T14:16:55.079Z,1.80
2019-04-28T14:23:00.821Z,2.10
2019-04-28T14:29:07.208Z,2.00
2019-04-28T14:35:13.137Z,2.40
2019-04-28T14:41:18.962Z,2.20
2019-04-28T14:47:24.753Z,2.20
2019-04-28T14:53:30.772Z,1.67
2019-04-28T14:59:36.639Z,4.87
2019-04-28T15:06:01.335Z,2.23
2019-04-28T15:12:07.877Z,2.07
2019-04-28T15:18:13.655Z,1.80
2019-04-28T15:24:19.581Z,2.13
2019-04-28T15:30:25.510Z,0.70
2019-04-28T15:36:31.515Z,1.43
2019-04-28T15:42:37.220Z,0.70
2019-04-28T15:48:43.281Z,1.17
2019-04-28T15:54:49.037Z,0.50
2019-04-28T16:00:54.844Z,0.50
2019-04-28T16:07:00.661Z,1.00
2019-04-28T16:13:06.390Z,1.70
2019-04-28T16:19:12.385Z,0.90
2019-04-28T16:25:18.182Z,3.57
2019-04-28T16:31:23.949Z,1.00
2019-04-28T16:37:38.728Z,1.17
2019-04-28T16:43:51.789Z,1.83
2019-04-28T16:49:57.540Z,0.90
2019-04-28T16:56:08.895Z,1.07
2019-04-28T17:02:20.712Z,1.80
2019-04-28T17:08:26.571Z,1.03
2019-04-28T17:14:32.337Z,0.80
2019-04-28T17:20:38.352Z,0.80
2019-04-28T17:26:44.336Z,0.70
2019-04-28T17:32:50.245Z,0.60
2019-04-28T17:38:56.159Z,1.80
2019-04-28T17:45:01.995Z,0.63
2019-04-28T17:51:08.194Z,1.00
2019-04-28T17:57:14.001Z,0.93
2019-04-28T18:03:26.924Z,1.83
2019-04-28T18:09:32.924Z,0.77
2019-04-28T18:15:56.637Z,0.90
2019-04-28T18:22:02.545Z,1.33
2019-04-28T18:28:08.972Z,1.07
2019-04-28T18:34:25.758Z,1.57
2019-04-28T18:40:56.650Z,1.30
2019-04-28T18:47:02.874Z,1.50
2019-04-28T18:53:09.431Z,1.53
2019-04-28T18:59:15.426Z,1.70
2019-04-28T19:05:24.040Z,3.17
2019-04-28T19:11:52.446Z,3.17
2019-04-28T19:18:17.122Z,5.13
2019-04-28T19:24:23.448Z,4.10
2019-04-28T19:30:29.255Z,5.70
2019-04-28T19:36:35.241Z,2.63
2019-04-28T19:42:41.229Z,3.47
2019-04-28T19:48:47.510Z,3.17
2019-04-28T19:55:15.200Z,3.40
2019-04-28T20:01:26.530Z,3.57
2019-04-28T20:07:32.301Z,4.30
2019-04-28T20:13:38.366Z,4.00
2019-04-28T20:19:44.592Z,4.30
2019-04-28T20:25:50.524Z,4.43
2019-04-28T20:31:56.366Z,5.00
2019-04-28T20:38:07.713Z,5.03
2019-04-28T20:44:13.588Z,5.47
2019-04-28T20:50:19.712Z,5.30
2019-04-28T20:56:25.578Z,5.00
2019-04-28T21:02:31.564Z,5.87
2019-04-28T21:08:37.397Z,5.90
2019-04-28T21:14:43.370Z,5.50
2019-04-28T21:20:49.623Z,5.93
2019-04-28T21:26:55.572Z,6.07
2019-04-28T21:33:01.726Z,5.90
2019-04-28T21:39:09.727Z,8.17
2019-04-28T21:45:37.584Z,6.37
2019-04-28T21:51:43.528Z,7.03
2019-04-28T21:57:49.341Z,6.40
2019-04-28T22:03:55.402Z,5.93
2019-04-28T22:10:01.178Z,6.80
2019-04-28T22:16:07.423Z,7.73
2019-04-28T22:22:13.405Z,7.23
2019-04-28T22:28:19.246Z,6.97
2019-04-28T22:34:25.025Z,8.33
2019-04-28T22:40:31.351Z,6.70
2019-04-28T22:46:37.645Z,7.47
2019-04-28T22:52:44.794Z,7.67
2019-04-28T22:58:55.477Z,59.60
2019-04-28T23:05:05.019Z,7.27
2019-04-28T23:11:11.082Z,8.07
2019-04-28T23:17:18.464Z,6.60
2019-04-28T23:23:24.814Z,6.63
2019-04-28T23:29:30.848Z,7.33
2019-04-28T23:35:36.904Z,9.67
2019-04-28T23:41:48.644Z,11.30
2019-04-28T23:47:54.435Z,8.23
2019-04-28T23:54:03.843Z,8.37
